createdAt,value
2023-02-14T06:50:06.236Z,53.15
2023-02-14T06:53:08.197Z,61.13
2023-02-14T06:56:10.049Z,49.35
2023-02-14T06:59:11.894Z,65.30
2023-02-14T07:02:13.978Z,58.92
2023-02-14T07:05:19.278Z,62.30
2023-02-14T07:08:21.912Z,63.92
2023-02-14T07:11:24.777Z,52.97
2023-02-14T07:14:27.489Z,56.85
2023-02-14T07:17:29.804Z,52.05
2023-02-14T07:20:35.023Z,48.25
2023-02-14T07:23:38.608Z,53.08
2023-02-14T07:26:45.852Z,52.40
2023-02-14T07:29:48.874Z,56.08
2023-02-14T07:32:51.402Z,39.42
2023-02-14T07:35:53.819Z,42.80
2023-02-14T07:38:57.033Z,37.00
2023-02-14T07:41:59.647Z,39.13
2023-02-14T07:45:12.539Z,36.35
2023-02-14T07:48:23.156Z,34.55
2023-02-14T07:51:24.946Z,28.55
2023-02-14T07:54:27.171Z,30.30
2023-02-14T07:57:28.982Z,30.17
2023-02-14T08:00:30.792Z,31.73
2023-02-14T08:03:32.695Z,37.05
2023-02-14T08:06:34.700Z,37.03
2023-02-14T08:09:36.827Z,32.72
2023-02-14T08:12:57.720Z,33.13
2023-02-14T08:16:05.749Z,33.22
2023-02-14T08:19:09.109Z,36.33
2023-02-14T08:22:11.436Z,36.08
2023-02-14T08:25:13.548Z,27.65
2023-02-14T08:28:15.883Z,29.70
2023-02-14T08:31:36.256Z,30.75
2023-02-14T08:34:38.579Z,31.08
2023-02-14T08:37:40.548Z,32.47
2023-02-14T08:40:43.414Z,34.72
2023-02-14T08:43:45.653Z,37.20
2023-02-14T08:46:47.587Z,33.83
2023-02-14T08:49:50.349Z,38.17
2023-02-14T08:52:54.984Z,34.00
2023-02-14T08:56:04.775Z,31.70
2023-02-14T08:59:14.693Z,31.15
2023-02-14T09:02:22.929Z,31.77
2023-02-14T09:05:33.156Z,32.53
2023-02-14T09:08:57.589Z,37.75
2023-02-14T09:12:12.158Z,33.38
2023-02-14T09:15:19.901Z,35.83
2023-02-14T09:18:27.290Z,37.03
2023-02-14T09:21:40.527Z,39.17
2023-02-14T09:24:49.310Z,33.10
2023-02-14T09:27:57.615Z,35.67
2023-02-14T09:31:13.254Z,45.20
2023-02-14T09:38:00.447Z,38.13
2023-02-14T09:41:09.966Z,42.10
2023-02-14T09:44:37.582Z,39.38
2023-02-14T09:48:12.531Z,38.10
2023-02-14T09:51:22.636Z,32.53
2023-02-14T09:54:29.590Z,36.42
2023-02-14T09:57:41.403Z,38.53
2023-02-14T10:00:50.303Z,37.15
2023-02-14T10:04:10.371Z,32.92
2023-02-14T10:07:22.320Z,34.40
2023-02-14T10:10:34.366Z,34.47
2023-02-14T10:14:24.723Z,38.72
2023-02-14T10:17:50.159Z,41.58
2023-02-14T10:21:05.801Z,33.55
2023-02-14T10:24:23.516Z,33.15
2023-02-14T10:27:41.408Z,31.42
2023-02-14T10:30:54.921Z,31.15
2023-02-14T10:34:15.019Z,33.30
2023-02-14T10:37:50.725Z,29.63
2023-02-14T10:41:17.163Z,27.70
2023-02-14T10:44:28.622Z,25.20
2023-02-14T10:47:48.014Z,27.83
2023-02-14T10:50:59.234Z,28.50
2023-02-14T10:54:23.376Z,25.58
2023-02-14T10:57:46.292Z,29.55
2023-02-14T11:01:14.883Z,23.88
2023-02-14T11:04:20.082Z,24.85
2023-02-14T11:10:37.035Z,24.55
2023-02-14T11:13:41.514Z,19.20
2023-02-14T11:16:43.822Z,21.83
2023-02-14T11:20:02.762Z,24.20
2023-02-14T11:23:19.228Z,24.50
2023-02-14T11:26:30.557Z,24.92
2023-02-14T11:29:42.027Z,36.40
2023-02-14T11:32:57.388Z,30.45
2023-02-14T11:36:00.976Z,37.55
2023-02-14T11:39:26.103Z,39.78
2023-02-14T11:42:37.074Z,38.10
2023-02-14T11:45:41.432Z,36.70
2023-02-14T11:49:06.319Z,40.33
2023-02-14T11:52:10.600Z,41.75
2023-02-14T11:55:32.334Z,36.20
2023-02-14T11:58:47.613Z,43.40
2023-02-14T12:01:49.636Z,51.08
2023-02-14T12:06:18.950Z,49.17
2023-02-14T12:09:23.687Z,42.25
2023-02-14T12:12:26.559Z,44.95
2023-02-14T12:15:36.992Z,41.35
2023-02-14T12:19:02.061Z,44.15
2023-02-14T12:22:06.280Z,47.80
2023-02-14T12:25:16.483Z,51.60
2023-02-14T12:28:30.842Z,44.13
2023-02-14T12:31:32.799Z,41.17
2023-02-14T12:34:36.340Z,43.28
2023-02-14T12:38:07.279Z,50.97
2023-02-14T12:41:45.878Z,43.50
2023-02-14T12:45:09.553Z,53.28
2023-02-14T12:48:37.517Z,46.47
2023-02-14T12:52:10.356Z,47.25
2023-02-14T12:55:22.923Z,49.97
2023-02-14T12:59:00.789Z,43.58
2023-02-14T13:02:05.951Z,42.15
2023-02-14T13:08:54.633Z,42.08
2023-02-14T13:12:21.375Z,41.38
2023-02-14T13:15:53.062Z,39.90
2023-02-14T13:19:16.350Z,37.40
2023-02-14T13:22:21.952Z,43.53
2023-02-14T13:25:31.805Z,48.10
2023-02-14T13:28:36.028Z,39.22
2023-02-14T13:31:39.462Z,36.45
2023-02-14T13:34:48.986Z,37.42
2023-02-14T13:37:57.784Z,39.10
2023-02-14T13:41:02.792Z,39.38
2023-02-14T13:47:08.610Z,48.92
2023-02-14T13:50:21.299Z,49.50
2023-02-14T13:53:31.908Z,37.35
2023-02-14T13:56:35.649Z,46.15
2023-02-14T13:59:37.609Z,48.63
2023-02-14T14:02:46.501Z,45.03
2023-02-14T14:06:02.174Z,42.85
2023-02-14T14:09:04.289Z,45.65
2023-02-14T14:12:28.787Z,49.45
2023-02-14T14:15:30.595Z,45.35
2023-02-14T14:18:38.594Z,47.03
2023-02-14T14:33:29.127Z,44.30
2023-02-14T14:38:07.241Z,45.85
2023-02-14T14:42:46.232Z,45.47
2023-02-14T14:47:25.149Z,45.95
2023-02-14T15:27:47.192Z,47.58
2023-02-14T15:30:59.666Z,45.40
2023-02-14T15:34:07.609Z,53.13
2023-02-14T15:41:33.773Z,60.90
2023-02-14T15:46:03.262Z,46.00
2023-02-14T15:49:15.512Z,47.40
2023-02-14T15:53:54.293Z,45.55
2023-02-14T15:56:56.723Z,53.63
2023-02-14T16:01:34.365Z,65.47
2023-02-14T16:04:36.205Z,56.08
2023-02-14T16:07:37.889Z,55.70
2023-02-14T16:10:40.070Z,56.13
2023-02-14T16:13:47.718Z,51.38
2023-02-14T16:17:04.614Z,54.33
2023-02-14T16:20:36.961Z,54.47
2023-02-14T16:23:39.163Z,63.13
2023-02-14T16:26:43.449Z,64.50
2023-02-14T16:29:45.546Z,60.93
2023-02-14T16:32:52.539Z,57.17
2023-02-14T16:35:55.025Z,59.92
2023-02-14T16:38:57.712Z,56.65
2023-02-14T16:41:59.414Z,60.38
2023-02-14T16:45:01.082Z,54.33
2023-02-14T16:48:03.099Z,54.55
2023-02-14T16:51:05.011Z,62.00
2023-02-14T16:54:11.508Z,56.75
2023-02-14T16:57:20.334Z,63.28
